Gilford, United Kingdom
Current Conditions -  °F | °C
As of 11:20 PM on Monday 22 Dec 2014 (Local Time) from EGAA Reporting Station
Drizzle Drizzle  
Wind Chill: 44°   Ceiling: 900
Heat Index: 48°   Visibility: 3mi
Dew Point: 48°   Wind: 9mph
Humidity: 100%   Direction: 220°SW
Pressure: 29.74"   Gusts: NA
Location:  54.37°N, 6.36°W
Report Text: EGAA 222320Z 22008KT 5000 DZ FEW001 BKN009 BKN014 09/09 Q1007 REDZ
Loading
Personal Weather Stations






























Interactive Weather Map New forecast layout! Learn more

10-Day Weather Forecast

Advertisements
Track Severe Weather on mobile